createdAt,value
2022-09-02T00:04:59.761Z,19.1
2022-09-02T00:10:50.677Z,18.9
2022-09-02T00:16:41.458Z,19.1
2022-09-02T00:22:32.432Z,19.1
2022-09-02T00:28:23.452Z,19
2022-09-02T00:34:17.309Z,18.6
2022-09-02T00:40:09.599Z,18.6
2022-09-02T00:46:01.049Z,18.7
2022-09-02T00:51:52.678Z,18.6
2022-09-02T00:58:52.631Z,18.5
2022-09-02T01:04:43.417Z,18.8
2022-09-02T01:10:35.627Z,18.7
2022-09-02T01:16:27.812Z,18.8
2022-09-02T01:22:20.116Z,18.8
2022-09-02T01:28:10.904Z,18.8
2022-09-02T01:34:03.311Z,18.8
2022-09-02T01:39:56.493Z,18.7
2022-09-02T01:45:46.730Z,18.5
2022-09-02T01:51:37.723Z,18.4
2022-09-02T01:58:38.365Z,18.5
2022-09-02T02:04:29.373Z,18.6
2022-09-02T02:10:22.221Z,18.5
2022-09-02T02:16:15.189Z,18.5
2022-09-02T02:22:06.481Z,18.5
2022-09-02T02:27:58.949Z,18.3
2022-09-02T02:33:55.620Z,18.5
2022-09-02T02:39:48.163Z,18.4
2022-09-02T02:45:41.346Z,18.4
2022-09-02T02:51:32.338Z,18.3
2022-09-02T02:57:25.203Z,18.2
2022-09-02T03:03:17.835Z,18.1
2022-09-02T03:09:11.638Z,18.1
2022-09-02T03:15:04.332Z,18.1
2022-09-02T03:20:56.840Z,18.1
2022-09-02T03:26:49.046Z,18
2022-09-02T03:32:39.667Z,18
2022-09-02T03:38:30.622Z,17.9
2022-09-02T03:44:23.210Z,17.9
2022-09-02T03:50:13.505Z,17.8
2022-09-02T03:56:03.356Z,17.7
2022-09-02T04:01:53.477Z,17.8
2022-09-02T04:07:46.163Z,17.7
2022-09-02T04:13:35.892Z,17.6
2022-09-02T04:19:26.910Z,17.7
2022-09-02T04:25:18.443Z,17.5
2022-09-02T04:31:16.480Z,17.6
2022-09-02T04:37:07.501Z,17.6
2022-09-02T04:43:00.079Z,17.6
2022-09-02T04:48:52.226Z,17.7
2022-09-02T04:54:43.401Z,17.4
2022-09-02T05:00:33.321Z,17.4
2022-09-02T05:06:24.258Z,17.4
2022-09-02T05:12:15.168Z,17.5
2022-09-02T05:18:05.725Z,17.5
2022-09-02T05:23:57.509Z,17.5
2022-09-02T05:29:48.761Z,17.5
2022-09-02T05:35:49.822Z,17.6
2022-09-02T05:42:36.978Z,17.6
2022-09-02T05:48:27.968Z,17.8
2022-09-02T05:54:19.314Z,17.9
2022-09-02T06:00:17.699Z,18
2022-09-02T06:06:10.880Z,18.1
2022-09-02T06:12:03.090Z,18.5
2022-09-02T06:17:56.155Z,18.5
2022-09-02T06:23:49.992Z,18.7
2022-09-02T06:29:41.930Z,18.7
2022-09-02T06:35:33.376Z,18.8
2022-09-02T06:41:24.724Z,18.9
2022-09-02T06:47:15.485Z,18.9
2022-09-02T06:53:06.694Z,19
2022-09-02T06:58:58.993Z,19
2022-09-02T07:04:52.107Z,19.1
2022-09-02T07:10:48.594Z,19
2022-09-02T07:16:41.537Z,19.2
2022-09-02T07:22:32.942Z,19.4
2022-09-02T07:28:26.514Z,19.5
2022-09-02T07:34:16.975Z,19.6
2022-09-02T07:40:08.353Z,19.7
2022-09-02T07:45:59.896Z,19.9
2022-09-02T07:51:51.643Z,19.9
2022-09-02T07:57:46.043Z,20.1
2022-09-02T08:03:40.460Z,20.2
2022-09-02T08:09:29.678Z,20.2
2022-09-02T08:15:20.021Z,20.7
2022-09-02T08:21:13.254Z,20.7
2022-09-02T08:27:04.515Z,20.9
2022-09-02T08:32:56.808Z,21
2022-09-02T08:38:49.006Z,21.2
2022-09-02T08:44:40.275Z,21.2
2022-09-02T08:50:33.918Z,21.4
2022-09-02T08:56:27.832Z,21.5
2022-09-02T09:02:20.905Z,21.7
2022-09-02T09:08:14.967Z,21.9
2022-09-02T09:14:11.201Z,22
2022-09-02T09:20:01.465Z,22.2
2022-09-02T09:25:53.232Z,22.2
2022-09-02T09:31:44.826Z,22.5
2022-09-02T09:37:37.499Z,22.5
2022-09-02T09:43:28.583Z,22.7
2022-09-02T09:49:21.160Z,22.8
2022-09-02T09:55:13.779Z,22.9
2022-09-02T10:01:11.674Z,23
2022-09-02T10:07:01.890Z,23.3
2022-09-02T10:12:52.923Z,23.2
2022-09-02T10:18:44.800Z,23.7
2022-09-02T10:24:39.817Z,23.5
2022-09-02T10:30:31.168Z,23.7
2022-09-02T10:36:25.331Z,23.9
2022-09-02T10:42:16.654Z,24.1
2022-09-02T10:48:09.121Z,24.1
2022-09-02T10:53:59.845Z,24.3
2022-09-02T10:59:51.280Z,24.5
2022-09-02T11:05:44.385Z,24.5
2022-09-02T11:11:35.724Z,24.7
2022-09-02T11:17:27.434Z,24.8
2022-09-02T11:23:18.685Z,24.7
2022-09-02T11:29:10.698Z,25
2022-09-02T11:35:03.352Z,25
2022-09-02T11:47:25.942Z,24.7
2022-09-02T11:53:20.781Z,25.1
2022-09-02T11:59:15.582Z,25.2
2022-09-02T12:05:08.431Z,25.6
2022-09-02T12:11:03.034Z,25.8
2022-09-02T12:16:54.670Z,25.1
2022-09-02T12:22:47.008Z,25.5
2022-09-02T12:28:38.472Z,26
2022-09-02T12:34:31.916Z,25.9
2022-09-02T12:40:24.840Z,26.1
2022-09-02T12:46:22.758Z,26
2022-09-02T12:52:16.107Z,26.4
2022-09-02T12:58:08.956Z,26.1
2022-09-02T13:04:00.211Z,26
2022-09-02T13:09:51.904Z,26.2
2022-09-02T13:15:44.374Z,25.9
2022-09-02T13:21:37.837Z,26.5
2022-09-02T13:27:27.992Z,25.6
2022-09-02T13:33:17.877Z,25.9
2022-09-02T13:39:07.928Z,26.2
2022-09-02T13:44:57.686Z,26.2
2022-09-02T13:50:51.275Z,26
2022-09-02T13:56:42.600Z,26.3
2022-09-02T14:02:35.648Z,26
2022-09-02T14:08:27.171Z,25.8
2022-09-02T14:14:17.890Z,26.2
2022-09-02T14:20:09.461Z,26.1
2022-09-02T14:26:02.814Z,26.5
2022-09-02T14:31:54.369Z,26.3
2022-09-02T14:37:48.137Z,26.3
2022-09-02T14:43:39.940Z,26.6
2022-09-02T14:49:34.897Z,26.6
2022-09-02T14:55:40.301Z,26.5
2022-09-02T15:01:31.576Z,26.2
2022-09-02T15:07:23.462Z,26.5
2022-09-02T15:13:14.414Z,26.5
2022-09-02T15:19:03.567Z,25.9
2022-09-02T15:24:54.791Z,26.2
2022-09-02T15:30:48.001Z,26.3
2022-09-02T15:36:40.580Z,26.2
2022-09-02T15:42:34.486Z,26.2
2022-09-02T15:48:25.757Z,26
2022-09-02T15:54:18.136Z,26
2022-09-02T16:00:10.755Z,26.1
2022-09-02T16:06:02.449Z,25.9
2022-09-02T16:11:54.783Z,25.8
2022-09-02T16:17:45.840Z,25.6
2022-09-02T16:23:37.943Z,25.9
2022-09-02T16:29:29.322Z,25.7
2022-09-02T16:35:20.021Z,25.5
2022-09-02T16:41:11.002Z,25.6
2022-09-02T16:47:01.991Z,25.6
2022-09-02T16:52:57.068Z,25.5
2022-09-02T16:58:47.903Z,25.4
2022-09-02T17:04:39.393Z,25.4
2022-09-02T17:10:30.257Z,25.3
2022-09-02T17:16:22.935Z,25.1
2022-09-02T17:22:14.053Z,25
2022-09-02T17:28:05.904Z,24.9
2022-09-02T17:33:57.234Z,24.7
2022-09-02T17:39:48.830Z,24.7
2022-09-02T17:45:40.027Z,24.5
2022-09-02T17:51:32.046Z,24.3
2022-09-02T17:57:23.890Z,24.2
2022-09-02T18:03:15.393Z,24.1
2022-09-02T18:09:11.721Z,24.1
2022-09-02T18:15:25.808Z,23.8
2022-09-02T18:21:17.561Z,23.7
2022-09-02T18:27:08.332Z,23.4
2022-09-02T18:34:04.150Z,23
2022-09-02T18:39:53.498Z,22.7
2022-09-02T18:45:51.426Z,22.5
2022-09-02T18:51:41.863Z,22.4
2022-09-02T18:57:33.583Z,22.3
2022-09-02T19:03:22.248Z,22.1
2022-09-02T19:09:12.026Z,21.8
2022-09-02T19:15:01.819Z,21.4
2022-09-02T19:20:51.875Z,21.4
2022-09-02T19:26:42.201Z,21.1
2022-09-02T19:32:31.627Z,21.1
2022-09-02T19:38:21.822Z,20.9
2022-09-02T19:44:12.398Z,20.8
2022-09-02T19:50:02.131Z,20.7
2022-09-02T19:55:51.910Z,20.2
2022-09-02T20:01:41.880Z,20.3
2022-09-02T20:07:31.789Z,20
2022-09-02T20:13:21.744Z,20.1
2022-09-02T20:19:11.534Z,19.8
2022-09-02T20:25:03.897Z,19.8
2022-09-02T20:30:54.393Z,19.8
2022-09-02T20:36:44.834Z,19.5
2022-09-02T20:42:34.466Z,19.5
2022-09-02T20:48:23.696Z,19.2
2022-09-02T20:54:15.698Z,19.3
2022-09-02T21:00:05.371Z,18.9
2022-09-02T21:05:55.373Z,18.8
2022-09-02T21:11:45.433Z,18.7
2022-09-02T21:17:35.412Z,18.7
2022-09-02T21:23:32.239Z,18.8
2022-09-02T21:29:22.437Z,18.6
2022-09-02T21:35:14.636Z,18.3
2022-09-02T21:41:04.625Z,18.4
2022-09-02T21:46:54.969Z,18.2
2022-09-02T21:52:45.913Z,18.1
2022-09-02T21:58:35.547Z,18.3
2022-09-02T22:04:25.878Z,18.3
2022-09-02T22:10:15.220Z,18.4
2022-09-02T22:16:05.790Z,18.3
2022-09-02T22:21:57.850Z,18.4
2022-09-02T22:27:49.798Z,18.4
2022-09-02T22:33:46.014Z,18.1
2022-09-02T22:39:37.967Z,18.1
2022-09-02T22:45:29.491Z,18.1
2022-09-02T22:51:20.209Z,18.1
2022-09-02T22:57:12.119Z,18
2022-09-02T23:03:03.313Z,17.8
2022-09-02T23:08:54.488Z,17.8
2022-09-02T23:14:45.484Z,17.9
2022-09-02T23:20:36.344Z,17.8
2022-09-02T23:26:27.573Z,17.8
2022-09-02T23:32:18.892Z,17.6
2022-09-02T23:38:09.679Z,17.8
2022-09-02T23:44:01.968Z,17.8
2022-09-02T23:49:53.154Z,17.7
2022-09-02T23:55:46.599Z,17.8
